createdAt,value
2022-12-11T00:00:29.129Z,0.13
2022-12-11T00:03:16.408Z,0.15
2022-12-11T00:06:05.855Z,0.13
2022-12-11T00:08:53.420Z,0.17
2022-12-11T00:11:38.164Z,0.23
2022-12-11T00:14:23.441Z,0.20
2022-12-11T00:17:08.294Z,0.16
2022-12-11T00:19:53.434Z,0.01
2022-12-11T00:22:38.328Z,0.03
2022-12-11T00:25:23.193Z,0.03
2022-12-11T00:28:08.251Z,0.14
2022-12-11T00:30:53.252Z,0.15
2022-12-11T00:33:38.446Z,0.06
2022-12-11T00:36:25.914Z,-0.04
2022-12-11T00:39:11.038Z,0.05
2022-12-11T00:41:56.205Z,0.15
2022-12-11T00:44:41.489Z,0.17
2022-12-11T00:47:26.523Z,0.02
2022-12-11T00:50:12.210Z,0.08
2022-12-11T00:52:57.266Z,0.13
2022-12-11T00:55:44.091Z,0.14
2022-12-11T00:58:29.063Z,0.16
2022-12-11T01:01:20.929Z,0.20
2022-12-11T01:04:06.096Z,0.08
2022-12-11T01:06:51.175Z,0.02
2022-12-11T01:09:54.463Z,0.11
2022-12-11T01:12:39.738Z,-0.04
2022-12-11T01:15:28.065Z,0.07
2022-12-11T01:18:14.779Z,0.17
2022-12-11T01:20:59.770Z,0.15
2022-12-11T01:23:44.885Z,0.03
2022-12-11T01:26:30.590Z,0.09
2022-12-11T01:29:15.910Z,0.06
2022-12-11T01:32:00.935Z,0.12
2022-12-11T01:34:46.006Z,0.12
2022-12-11T01:37:30.983Z,0.10
2022-12-11T01:40:18.742Z,0.06
2022-12-11T01:43:03.572Z,0.04
2022-12-11T01:45:48.891Z,-0.01
2022-12-11T01:48:36.777Z,0.03
2022-12-11T01:51:26.862Z,0.06
2022-12-11T01:54:14.718Z,0.15
2022-12-11T01:57:04.105Z,0.14
2022-12-11T01:59:49.260Z,0.15
2022-12-11T02:02:33.986Z,0.25
2022-12-11T02:05:19.027Z,0.24
2022-12-11T02:08:04.884Z,0.18
2022-12-11T02:11:04.062Z,0.15
2022-12-11T02:14:05.392Z,0.20
2022-12-11T02:17:01.154Z,0.17
2022-12-11T02:20:10.859Z,0.08
2022-12-11T02:23:22.981Z,0.13
2022-12-11T02:26:18.665Z,0.31
2022-12-11T02:29:12.250Z,0.19
2022-12-11T02:32:03.263Z,0.16
2022-12-11T02:35:20.799Z,0.19
2022-12-11T02:38:10.639Z,0.22
2022-12-11T02:40:58.325Z,0.20
2022-12-11T02:43:44.411Z,0.11
2022-12-11T02:46:31.187Z,0.06
2022-12-11T02:49:16.747Z,0.01
2022-12-11T02:52:05.064Z,-0.03
2022-12-11T02:54:53.825Z,0.04
2022-12-11T02:57:59.864Z,0.07
2022-12-11T03:00:46.092Z,0.01
2022-12-11T03:03:31.117Z,0.03
2022-12-11T03:06:21.602Z,0.01
2022-12-11T03:09:07.325Z,0.01
2022-12-11T03:11:52.444Z,-0.03
2022-12-11T03:14:40.326Z,0.02
2022-12-11T03:17:33.947Z,0.02
2022-12-11T03:20:40.513Z,0.08
2022-12-11T03:23:35.740Z,0.11
2022-12-11T03:26:22.720Z,0.07
2022-12-11T03:29:20.515Z,0.14
2022-12-11T03:32:11.071Z,0.21
2022-12-11T03:35:03.865Z,0.17
2022-12-11T03:37:52.141Z,0.11
2022-12-11T03:40:40.126Z,0.11
2022-12-11T03:43:28.480Z,0.15
2022-12-11T03:46:15.244Z,0.08
2022-12-11T03:49:05.695Z,0.02
2022-12-11T03:51:53.577Z,0.12
2022-12-11T03:54:41.163Z,0.13
2022-12-11T03:57:31.132Z,0.17
2022-12-11T04:00:18.546Z,0.16
2022-12-11T04:03:13.854Z,0.24
2022-12-11T04:05:59.350Z,0.22
2022-12-11T04:08:44.610Z,0.24
2022-12-11T04:11:35.048Z,0.26
2022-12-11T04:14:39.055Z,0.27
2022-12-11T04:17:42.731Z,0.19
2022-12-11T04:20:46.924Z,0.24
2022-12-11T04:23:50.487Z,0.24
2022-12-11T04:26:35.493Z,0.10
2022-12-11T04:29:20.513Z,0.17
2022-12-11T04:32:05.788Z,0.13
2022-12-11T04:34:50.626Z,0.18
2022-12-11T04:37:36.035Z,0.24
2022-12-11T04:40:21.883Z,0.22
2022-12-11T04:43:06.666Z,0.19
2022-12-11T04:46:01.024Z,0.18
2022-12-11T04:48:48.445Z,0.15
2022-12-11T04:51:35.111Z,0.18
2022-12-11T04:54:20.225Z,0.08
2022-12-11T04:57:05.375Z,0.24
2022-12-11T04:59:50.482Z,0.19
2022-12-11T05:02:36.940Z,0.26
2022-12-11T05:05:22.021Z,0.27
2022-12-11T05:08:08.066Z,0.35
2022-12-11T05:10:57.315Z,0.34
2022-12-11T05:13:42.928Z,0.28
2022-12-11T05:16:28.189Z,0.24
2022-12-11T05:19:13.404Z,0.14
2022-12-11T05:21:58.544Z,0.24
2022-12-11T05:24:44.104Z,0.23
2022-12-11T05:27:28.885Z,0.19
2022-12-11T05:30:13.914Z,0.19
2022-12-11T05:32:58.924Z,0.25
2022-12-11T05:35:48.366Z,0.31
2022-12-11T05:38:33.631Z,0.36
2022-12-11T05:41:21.962Z,0.38
2022-12-11T05:44:07.199Z,0.30
2022-12-11T05:46:52.451Z,0.36
2022-12-11T05:49:37.222Z,0.38
2022-12-11T05:52:22.391Z,0.41
2022-12-11T05:55:09.697Z,0.33
2022-12-11T05:57:54.903Z,0.37
2022-12-11T06:00:43.187Z,0.37
2022-12-11T06:03:28.199Z,0.36
2022-12-11T06:06:13.512Z,0.37
2022-12-11T06:09:00.410Z,0.32
2022-12-11T06:11:45.393Z,0.30
2022-12-11T06:14:30.241Z,0.24
2022-12-11T06:17:15.249Z,0.29
2022-12-11T06:20:00.391Z,0.36
2022-12-11T06:22:45.402Z,0.29
2022-12-11T06:25:30.746Z,0.25
2022-12-11T06:28:17.442Z,0.32
2022-12-11T06:31:02.228Z,0.23
2022-12-11T06:33:47.501Z,0.27
2022-12-11T06:36:32.609Z,0.29
2022-12-11T06:39:17.921Z,0.31
2022-12-11T06:42:02.970Z,0.24
2022-12-11T06:44:48.015Z,0.30
2022-12-11T06:47:33.140Z,0.27
2022-12-11T06:50:17.996Z,0.34
2022-12-11T06:53:03.110Z,0.41
2022-12-11T06:55:48.101Z,0.44
2022-12-11T06:58:34.965Z,0.42
2022-12-11T07:01:23.410Z,0.42
2022-12-11T07:04:09.071Z,0.37
2022-12-11T07:06:53.954Z,0.30
2022-12-11T07:09:40.686Z,0.34
2022-12-11T07:12:25.477Z,0.30
2022-12-11T07:15:11.113Z,0.36
2022-12-11T07:17:56.159Z,0.29
2022-12-11T07:20:41.254Z,0.20
2022-12-11T07:23:28.281Z,0.23
2022-12-11T07:26:15.910Z,0.27
2022-12-11T07:29:01.130Z,0.33
2022-12-11T07:31:46.385Z,0.34
2022-12-11T07:34:31.180Z,0.36
2022-12-11T07:37:16.210Z,0.37
2022-12-11T07:40:01.189Z,0.34
2022-12-11T07:42:46.541Z,0.39
2022-12-11T07:45:31.997Z,0.36
2022-12-11T07:48:16.829Z,0.31
2022-12-11T07:51:28.517Z,0.37
2022-12-11T07:54:16.705Z,0.36
2022-12-11T07:57:01.538Z,0.38
2022-12-11T07:59:46.565Z,0.37
2022-12-11T08:02:37.014Z,0.40
2022-12-11T08:05:22.606Z,0.34
2022-12-11T08:08:07.695Z,0.37
2022-12-11T08:10:53.199Z,0.49
2022-12-11T08:13:37.993Z,0.50
2022-12-11T08:16:23.241Z,0.47
2022-12-11T08:19:08.537Z,0.49
2022-12-11T08:21:53.731Z,0.43
2022-12-11T08:24:38.985Z,0.48
2022-12-11T08:27:23.696Z,0.55
2022-12-11T08:30:09.449Z,0.45
2022-12-11T08:32:54.258Z,0.33
2022-12-11T08:35:39.841Z,0.19
2022-12-11T08:38:25.706Z,0.14
2022-12-11T08:41:13.306Z,0.16
2022-12-11T08:44:00.115Z,0.26
2022-12-11T08:46:45.539Z,0.14
2022-12-11T08:49:34.327Z,0.06
2022-12-11T08:52:19.676Z,0.27
2022-12-11T08:55:05.343Z,0.38
2022-12-11T08:57:50.681Z,0.49
2022-12-11T09:00:36.088Z,0.51
2022-12-11T09:03:21.256Z,0.41
2022-12-11T09:06:08.451Z,0.38
2022-12-11T09:08:55.898Z,0.30
2022-12-11T09:11:40.923Z,0.31
2022-12-11T09:14:25.898Z,0.31
2022-12-11T09:17:11.025Z,0.11
2022-12-11T09:19:56.179Z,0.24
2022-12-11T09:22:42.675Z,0.10
2022-12-11T09:25:27.741Z,0.28
2022-12-11T09:28:12.903Z,0.27
2022-12-11T09:30:58.031Z,0.47
2022-12-11T09:33:43.503Z,0.30
2022-12-11T09:36:29.461Z,0.51
2022-12-11T09:39:16.067Z,0.45
2022-12-11T09:42:36.337Z,0.56
2022-12-11T09:45:21.431Z,0.57
2022-12-11T09:48:08.166Z,0.57
2022-12-11T09:50:54.911Z,0.47
2022-12-11T09:53:39.866Z,0.53
2022-12-11T09:56:33.736Z,0.57
2022-12-11T09:59:41.241Z,0.64
2022-12-11T10:02:47.554Z,0.72
2022-12-11T10:05:49.851Z,0.77
2022-12-11T10:08:44.696Z,0.75
2022-12-11T10:11:50.357Z,0.70
2022-12-11T10:15:11.526Z,0.71
2022-12-11T10:18:04.626Z,0.60
2022-12-11T10:20:52.613Z,0.72
2022-12-11T10:23:50.648Z,0.93
2022-12-11T10:26:39.496Z,0.83
2022-12-11T10:29:24.754Z,0.90
2022-12-11T10:32:21.771Z,0.92
2022-12-11T10:35:07.859Z,0.50
2022-12-11T10:37:57.061Z,0.33
2022-12-11T10:40:46.229Z,0.71
2022-12-11T10:43:37.254Z,0.51
2022-12-11T10:46:25.477Z,0.44
2022-12-11T10:49:29.950Z,0.39
2022-12-11T10:52:24.607Z,0.83
2022-12-11T10:55:27.251Z,1.12
2022-12-11T10:58:19.012Z,1.21
2022-12-11T11:01:10.409Z,1.22
2022-12-11T11:03:58.646Z,1.32
2022-12-11T11:06:43.830Z,1.38
2022-12-11T11:09:35.725Z,1.50
2022-12-11T11:12:26.996Z,1.32
2022-12-11T11:15:13.814Z,0.72
2022-12-11T11:18:11.227Z,0.69
2022-12-11T11:20:56.939Z,0.78
2022-12-11T11:23:46.244Z,0.79
2022-12-11T11:26:56.550Z,0.81
2022-12-11T11:29:39.019Z,1.22
2022-12-11T11:32:30.911Z,1.47
2022-12-11T11:35:20.394Z,1.36
2022-12-11T11:38:18.499Z,1.52
2022-12-11T11:41:16.841Z,1.49
2022-12-11T11:44:07.156Z,1.45
2022-12-11T11:47:24.833Z,1.24
2022-12-11T11:50:18.928Z,1.27
2022-12-11T11:53:11.793Z,1.24
2022-12-11T11:56:23.550Z,0.95
2022-12-11T11:59:23.329Z,1.04
2022-12-11T12:02:16.241Z,0.97
2022-12-11T12:05:03.390Z,1.30
2022-12-11T12:08:14.119Z,1.56
2022-12-11T12:11:08.006Z,1.61
2022-12-11T12:14:43.751Z,1.66
2022-12-11T12:17:55.461Z,1.77
2022-12-11T12:21:00.401Z,1.88
2022-12-11T12:24:05.411Z,1.98
2022-12-11T12:27:43.245Z,2.08
2022-12-11T12:30:22.813Z,2.09
2022-12-11T12:33:52.434Z,2.26
2022-12-11T12:36:51.186Z,1.88
2022-12-11T12:39:44.957Z,1.90
2022-12-11T12:42:37.387Z,2.30
2022-12-11T12:45:31.076Z,2.43
2022-12-11T12:48:16.465Z,2.02
2022-12-11T12:51:03.382Z,2.03
2022-12-11T12:53:57.872Z,1.97
2022-12-11T12:56:44.995Z,1.99
2022-12-11T12:59:29.985Z,2.34
2022-12-11T13:02:17.126Z,2.06
2022-12-11T13:05:15.941Z,2.53
2022-12-11T13:08:04.345Z,1.60
2022-12-11T13:11:01.076Z,1.58
2022-12-11T13:14:00.467Z,2.02
2022-12-11T13:16:47.712Z,2.38
2022-12-11T13:19:40.603Z,2.18
2022-12-11T13:22:27.517Z,2.28
2022-12-11T13:25:26.129Z,1.99
2022-12-11T13:28:40.498Z,1.46
2022-12-11T13:31:32.869Z,1.59
2022-12-11T13:34:22.747Z,1.85
2022-12-11T13:37:24.772Z,1.88
2022-12-11T13:40:25.921Z,1.51
2022-12-11T13:43:24.528Z,1.62
2022-12-11T13:46:12.221Z,1.55
2022-12-11T13:49:03.059Z,1.47
2022-12-11T13:51:54.274Z,1.30
2022-12-11T13:54:50.407Z,1.29
2022-12-11T13:57:45.500Z,1.27
2022-12-11T14:00:32.747Z,1.17
2022-12-11T14:03:18.728Z,1.12
2022-12-11T14:06:04.191Z,1.13
2022-12-11T14:08:51.716Z,1.10
2022-12-11T14:11:42.000Z,0.99
2022-12-11T14:14:43.472Z,1.17
2022-12-11T14:17:32.694Z,0.98
2022-12-11T14:20:21.423Z,1.16
2022-12-11T14:23:07.585Z,1.12
2022-12-11T14:25:54.440Z,1.29
2022-12-11T14:28:42.367Z,1.18
2022-12-11T14:31:30.602Z,1.33
2022-12-11T14:34:29.818Z,1.47
2022-12-11T14:37:17.568Z,1.44
2022-12-11T14:40:10.229Z,1.47
2022-12-11T14:43:00.516Z,1.48
2022-12-11T14:45:49.000Z,1.41
2022-12-11T14:48:44.700Z,1.32
2022-12-11T14:51:35.889Z,1.32
2022-12-11T14:54:40.559Z,1.33
2022-12-11T14:57:30.538Z,1.32
2022-12-11T15:00:26.180Z,1.31
2022-12-11T15:03:17.300Z,1.35
2022-12-11T15:06:20.134Z,1.37
2022-12-11T15:09:36.507Z,1.25
2022-12-11T15:12:21.908Z,1.32
2022-12-11T15:15:14.353Z,1.27
2022-12-11T15:18:03.661Z,1.25
2022-12-11T15:20:58.240Z,1.27
2022-12-11T15:23:52.742Z,1.23
2022-12-11T15:26:44.103Z,1.20
2022-12-11T15:29:37.935Z,1.30
2022-12-11T15:32:24.411Z,1.18
2022-12-11T15:35:24.154Z,1.14
2022-12-11T15:38:27.329Z,1.23
2022-12-11T15:41:17.724Z,1.22
2022-12-11T15:44:04.074Z,1.25
2022-12-11T15:46:49.480Z,1.16
2022-12-11T15:49:34.289Z,1.09
2022-12-11T15:52:19.343Z,1.15
2022-12-11T15:55:04.738Z,1.15
2022-12-11T15:57:55.611Z,1.10
2022-12-11T16:00:40.495Z,1.06
2022-12-11T16:03:25.689Z,1.13
2022-12-11T16:06:13.006Z,0.99
2022-12-11T16:08:57.992Z,1.02
2022-12-11T16:11:43.050Z,1.09
2022-12-11T16:14:27.919Z,1.07
2022-12-11T16:17:15.025Z,1.07
2022-12-11T16:20:00.072Z,1.07
2022-12-11T16:22:45.160Z,1.01
2022-12-11T16:25:29.944Z,0.98
2022-12-11T16:28:17.977Z,0.98
2022-12-11T16:31:03.407Z,0.99
2022-12-11T16:33:48.244Z,1.08
2022-12-11T16:36:33.282Z,1.06
2022-12-11T16:39:18.258Z,1.04
2022-12-11T16:42:04.978Z,1.08
2022-12-11T16:44:50.242Z,1.11
2022-12-11T16:47:35.112Z,1.13
2022-12-11T16:50:20.744Z,1.10
2022-12-11T16:53:05.819Z,1.10
2022-12-11T16:55:51.429Z,1.07
2022-12-11T16:58:36.305Z,1.07
2022-12-11T17:01:21.799Z,1.01
2022-12-11T17:04:06.845Z,1.02
2022-12-11T17:06:51.747Z,0.97
2022-12-11T17:09:36.722Z,1.01
2022-12-11T17:12:27.377Z,0.99
2022-12-11T17:15:12.970Z,1.00
2022-12-11T17:17:58.358Z,1.02
2022-12-11T17:20:44.621Z,0.98
2022-12-11T17:23:29.763Z,0.96
2022-12-11T17:26:15.641Z,0.98
2022-12-11T17:29:00.450Z,0.99
2022-12-11T17:31:45.721Z,0.97
2022-12-11T17:34:36.070Z,1.02
2022-12-11T17:37:22.636Z,0.92
2022-12-11T17:40:08.183Z,0.80
2022-12-11T17:42:53.311Z,0.77
2022-12-11T17:45:56.364Z,0.75
2022-12-11T17:48:41.363Z,0.67
2022-12-11T17:51:26.258Z,0.64
2022-12-11T17:54:11.561Z,0.57
2022-12-11T17:56:56.647Z,0.57
2022-12-11T17:59:41.683Z,0.57
2022-12-11T18:02:26.637Z,0.47
2022-12-11T18:05:12.028Z,0.46
2022-12-11T18:07:58.065Z,0.41
2022-12-11T18:10:45.509Z,0.39
2022-12-11T18:13:30.540Z,0.29
2022-12-11T18:16:19.671Z,0.23
2022-12-11T18:19:06.232Z,0.17
2022-12-11T18:21:50.977Z,0.16
2022-12-11T18:24:36.010Z,0.16
2022-12-11T18:27:21.110Z,0.03
2022-12-11T18:30:06.636Z,0.10
2022-12-11T18:32:52.037Z,0.09
2022-12-11T18:35:36.782Z,0.22
2022-12-11T18:38:22.231Z,0.32
2022-12-11T18:41:09.072Z,0.37
2022-12-11T18:43:54.991Z,0.41
2022-12-11T18:46:40.220Z,0.42
2022-12-11T18:49:25.384Z,0.52
2022-12-11T18:52:10.487Z,0.55
2022-12-11T18:54:55.656Z,0.53
2022-12-11T18:57:40.863Z,0.49
2022-12-11T19:00:25.727Z,0.41
2022-12-11T19:03:11.868Z,0.37
2022-12-11T19:05:56.903Z,0.33
2022-12-11T19:08:42.161Z,0.34
2022-12-11T19:11:29.218Z,0.38
2022-12-11T19:14:14.201Z,0.33
2022-12-11T19:16:59.720Z,0.12
2022-12-11T19:19:46.060Z,0.13
2022-12-11T19:22:31.218Z,0.08
2022-12-11T19:25:16.290Z,0.05
2022-12-11T19:28:01.760Z,-0.02
2022-12-11T19:30:48.941Z,-0.02
2022-12-11T19:33:33.934Z,0.04
2022-12-11T19:36:22.074Z,0.03
2022-12-11T19:39:12.852Z,0.05
2022-12-11T19:41:58.788Z,0.03
2022-12-11T19:44:43.858Z,0.15
2022-12-11T19:47:28.957Z,0.19
2022-12-11T19:50:13.870Z,0.19
2022-12-11T19:52:58.712Z,0.24
2022-12-11T19:55:50.712Z,0.17
2022-12-11T19:58:36.003Z,0.11
2022-12-11T20:01:25.698Z,0.03
2022-12-11T20:04:13.549Z,0.04
2022-12-11T20:06:58.662Z,0.04
2022-12-11T20:09:43.706Z,-0.02
2022-12-11T20:12:29.463Z,-0.06
2022-12-11T20:15:16.529Z,-0.13
2022-12-11T20:18:01.785Z,-0.16
2022-12-11T20:20:46.772Z,-0.11
2022-12-11T20:23:33.200Z,-0.05
2022-12-11T20:26:24.149Z,0.05
2022-12-11T20:29:09.133Z,0.06
2022-12-11T20:31:54.163Z,0.09
2022-12-11T20:34:39.489Z,0.08
2022-12-11T20:37:25.857Z,0.16
2022-12-11T20:40:11.797Z,0.17
2022-12-11T20:42:57.063Z,0.16
2022-12-11T20:45:47.515Z,0.20
2022-12-11T20:48:32.713Z,0.18
2022-12-11T20:51:25.653Z,0.24
2022-12-11T20:54:11.243Z,0.28
2022-12-11T20:56:56.934Z,0.15
2022-12-11T20:59:43.157Z,0.20
2022-12-11T21:02:30.754Z,0.21
2022-12-11T21:05:16.339Z,0.15
2022-12-11T21:08:01.183Z,0.17
2022-12-11T21:10:46.364Z,0.17
2022-12-11T21:13:31.399Z,0.20
2022-12-11T21:16:16.413Z,0.30
2022-12-11T21:19:02.515Z,0.25
2022-12-11T21:21:47.781Z,0.30
2022-12-11T21:24:32.977Z,0.34
2022-12-11T21:27:18.185Z,0.41
2022-12-11T21:30:05.049Z,0.42
2022-12-11T21:32:49.898Z,0.40
2022-12-11T21:35:35.304Z,0.39
2022-12-11T21:38:20.503Z,0.35
2022-12-11T21:41:17.587Z,0.32
2022-12-11T21:45:25.538Z,0.38
2022-12-11T21:47:07.172Z,0.33
2022-12-11T21:49:52.365Z,0.31
2022-12-11T21:52:38.659Z,0.33
2022-12-11T21:55:23.859Z,0.27
2022-12-11T21:58:09.484Z,0.22
2022-12-11T22:00:54.608Z,0.04
2022-12-11T22:03:39.681Z,0.12
2022-12-11T22:06:24.639Z,0.11
2022-12-11T22:09:12.332Z,0.05
2022-12-11T22:11:58.788Z,-0.09
2022-12-11T22:14:44.265Z,-0.18
2022-12-11T22:17:29.698Z,-0.20
2022-12-11T22:20:14.681Z,-0.30
2022-12-11T22:22:59.881Z,-0.40
2022-12-11T22:25:45.891Z,-0.54
2022-12-11T22:28:31.193Z,-0.57
2022-12-11T22:31:20.419Z,-0.67
2022-12-11T22:34:05.400Z,-0.68
2022-12-11T22:36:51.047Z,-0.76
2022-12-11T22:39:36.307Z,-0.78
2022-12-11T22:42:21.283Z,-0.85
2022-12-11T22:45:07.140Z,-0.80
2022-12-11T22:47:52.340Z,-0.90
2022-12-11T22:50:39.325Z,-0.87
2022-12-11T22:53:24.440Z,-0.87
2022-12-11T22:56:12.123Z,-0.86
2022-12-11T22:58:57.947Z,-0.87
2022-12-11T23:01:42.948Z,-0.87
2022-12-11T23:04:27.882Z,-0.84
2022-12-11T23:07:12.754Z,-0.72
2022-12-11T23:09:58.298Z,-0.52
2022-12-11T23:12:43.571Z,-0.49
2022-12-11T23:15:28.862Z,-0.49
2022-12-11T23:18:13.878Z,-0.41
2022-12-11T23:20:59.240Z,-0.40
2022-12-11T23:23:44.547Z,-0.45
2022-12-11T23:26:30.374Z,-0.43
2022-12-11T23:29:15.227Z,-0.41
2022-12-11T23:32:00.374Z,-0.48
2022-12-11T23:34:45.483Z,-0.53
2022-12-11T23:37:30.927Z,-0.56
2022-12-11T23:40:16.158Z,-0.63
2022-12-11T23:43:01.304Z,-0.61
2022-12-11T23:45:46.709Z,-0.54
2022-12-11T23:48:31.815Z,-0.51
2022-12-11T23:51:18.795Z,-0.43
2022-12-11T23:54:04.153Z,-0.56
2022-12-11T23:56:49.193Z,-0.41
2022-12-11T23:59:34.316Z,-0.37
